| time (UTC) | temp F | wind direction | speed knots | gust knots | rain 1hr in | rain 24hr in | rain mn in | humidity % | barometer mb |
| 20260506143018 | 46 | 356 | 0.0 | 0.0 | 0.00 | 0.00 | 0.00 | 81 | 962.2 |
| 20260506141516 | 46 | 356 | 0.0 | 0.0 | 0.00 | 0.00 | 0.00 | 79 | 962.2 |
| 20260506140014 | 45 | 356 | 0.0 | 0.0 | 0.00 | 0.00 | 0.00 | 79 | 962.1 |
| 20260506134511 | 45 | 356 | 0.0 | 0.0 | 0.00 | 0.00 | 0.00 | 79 | 962.0 |
| 20260506133009 | 45 | 356 | 0.0 | 0.0 | 0.00 | 0.00 | 0.00 | 78 | 961.9 |
| 20260506131520 | 45 | 356 | 0.0 | 0.0 | 0.00 | 0.00 | 0.00 | 77 | 961.8 |
| 20260506130006 | 45 | 356 | 0.0 | 0.0 | 0.00 | 0.00 | 0.00 | 77 | 961.7 |
| 20260506124503 | 46 | 356 | 0.0 | 0.0 | 0.00 | 0.00 | 0.00 | 75 | 961.5 |
| 20260506123001 | 46 | 356 | 0.0 | 0.0 | 0.00 | 0.00 | 0.00 | 75 | 961.4 |
| 20260506121601 | 46 | 356 | 0.0 | 0.0 | 0.00 | 0.00 | 0.00 | 75 | 961.4 |
| 20260506120058 | 46 | 356 | 0.0 | 0.0 | 0.00 | 0.00 | 0.00 | 73 | 961.3 |
| 20260506114558 | 47 | 356 | 0.0 | 0.0 | 0.00 | 0.00 | 0.00 | 73 | 961.3 |
| 20260506113054 | 47 | 356 | 0.0 | 0.0 | 0.00 | 0.00 | 0.00 | 71 | 961.3 |
| 20260506111552 | 47 | 356 | 0.0 | 0.0 | 0.00 | 0.00 | 0.00 | 71 | 961.2 |
| 20260506110049 | 48 | 356 | 0.0 | 0.0 | 0.00 | 0.00 | 0.00 | 70 | 960.9 |
| 20260506104549 | 49 | 356 | 0.0 | 0.0 | 0.00 | 0.00 | 0.00 | 70 | 960.9 |
| 20260506103043 | 49 | 356 | 0.0 | 0.0 | 0.00 | 0.00 | 0.00 | 66 | 960.8 |
| 20260506101542 | 49 | 356 | 0.0 | 0.0 | 0.00 | 0.00 | 0.00 | 65 | 960.7 |
| 20260506100040 | 50 | 356 | 0.0 | 0.0 | 0.00 | 0.00 | 0.00 | 65 | 960.5 |
| 20260506094548 | 50 | 356 | 0.0 | 0.0 | 0.00 | 0.00 | 0.00 | 63 | 960.4 |
| 20260506093038 | 50 | 356 | 0.0 | 0.0 | 0.00 | 0.00 | 0.00 | 64 | 960.4 |
| 20260506091533 | 51 | 356 | 0.0 | 0.0 | 0.00 | 0.00 | 0.00 | 64 | 960.3 |
| 20260506090030 | 51 | 356 | 0.0 | 0.0 | 0.00 | 0.00 | 0.00 | 66 | 960.3 |
| 20260506084529 | 52 | 356 | 0.0 | 0.0 | 0.00 | 0.00 | 0.00 | 63 | 960.3 |
| 20260506083024 | 52 | 356 | 0.0 | 0.0 | 0.00 | 0.00 | 0.00 | 62 | 960.2 |
| 20260506081530 | 53 | 356 | 0.0 | 0.0 | 0.00 | 0.00 | 0.00 | 61 | 960.1 |
| 20260506073014 | 55 | 356 | 0.0 | 0.0 | 0.00 | 0.00 | 0.00 | 60 | 960.0 |
| 20260506071513 | 56 | 356 | 0.0 | 0.0 | 0.00 | 0.00 | 0.00 | 58 | 959.8 |
| 20260506061511 | 59 | 356 | 0.0 | 0.0 | 0.00 | 0.00 | 0.00 | 51 | 959.2 |
| 20260506044506 | 64 | 356 | 0.0 | 0.0 | 0.00 | 0.00 | 0.00 | 44 | 958.6 |
| 20260506043005 | 65 | 356 | 0.0 | 0.0 | 0.00 | 0.00 | 0.00 | 43 | 958.4 |
| 20260506041512 | 66 | 356 | 0.0 | 0.0 | 0.00 | 0.00 | 0.00 | 41 | 958.3 |
| 20260506040008 | 67 | 356 | 0.0 | 2.6 | 0.00 | 0.00 | 0.00 | 40 | 958.0 |
| 20260506034505 | 69 | 356 | 0.0 | 0.0 | 0.00 | 0.00 | 0.00 | 38 | 957.9 |
| 20260506033004 | 69 | 356 | 0.0 | 2.6 | 0.00 | 0.00 | 0.00 | 36 | 957.8 |
| 20260506031503 | 70 | 356 | 0.0 | 0.0 | 0.00 | 0.00 | 0.00 | 34 | 957.6 |
| 20260506030005 | 71 | 356 | 0.0 | 0.0 | 0.00 | 0.00 | 0.00 | 33 | 957.7 |
| 20260506024507 | 72 | 356 | 0.0 | 0.0 | 0.00 | 0.00 | 0.00 | 33 | 957.7 |
| 20260506023000 | 72 | 356 | 0.0 | 0.0 | 0.00 | 0.00 | 0.00 | 32 | 957.7 |
| 20260506021600 | 73 | 356 | 0.0 | 0.0 | 0.00 | 0.00 | 0.00 | 32 | 957.8 |
| 20260506020100 | 74 | 356 | 0.0 | 0.0 | 0.00 | 0.00 | 0.00 | 31 | 957.9 |
| 20260506014600 | 75 | 356 | 0.0 | 0.0 | 0.00 | 0.00 | 0.00 | 30 | 957.9 |
| 20260506013058 | 77 | 356 | 0.0 | 0.0 | 0.00 | 0.00 | 0.00 | 29 | 957.9 |
| 20260506011557 | 79 | 356 | 0.0 | 0.0 | 0.00 | 0.00 | 0.00 | 27 | 957.9 |
| 20260506010056 | 79 | 356 | 0.0 | 0.0 | 0.00 | 0.00 | 0.00 | 26 | 958.0 |
| 20260506004556 | 80 | 356 | 0.0 | 1.7 | 0.00 | 0.00 | 0.00 | 26 | 958.1 |
| 20260506003054 | 80 | 3 | 0.0 | 1.7 | 0.00 | 0.00 | 0.00 | 25 | 958.2 |
| 20260506001556 | 80 | 48 | 0.0 | 6.1 | 0.00 | 0.00 | 0.00 | 25 | 958.3 |
| 20260506000053 | 81 | 23 | 0.0 | 2.6 | 0.00 | 0.00 | 0.00 | 23 | 958.5 |
| 20260505234554 | 82 | 57 | 0.9 | 5.2 | 0.00 | 0.00 | 0.00 | 21 | 958.6 |
| 20260505233048 | 83 | 15 | 0.0 | 0.0 | 0.00 | 0.00 | 0.00 | 21 | 958.8 |
| 20260505231558 | 83 | 351 | 0.0 | 0.0 | 0.00 | 0.00 | 0.00 | 24 | 959.0 |
| 20260505230054 | 83 | 351 | 0.0 | 0.0 | 0.00 | 0.00 | 0.00 | 24 | 959.1 |
| 20260505224542 | 83 | 353 | 0.0 | 0.0 | 0.00 | 0.00 | 0.00 | 23 | 959.3 |
| 20260505223039 | 82 | 145 | 0.0 | 0.0 | 0.00 | 0.00 | 0.00 | 24 | 959.5 |
| 20260505221538 | 82 | 145 | 0.0 | 0.0 | 0.00 | 0.00 | 0.00 | 26 | 959.6 |
| 20260505220036 | 82 | 188 | 0.0 | 0.0 | 0.00 | 0.00 | 0.00 | 26 | 959.8 |
| 20260505214533 | 81 | 188 | 0.0 | 0.0 | 0.00 | 0.00 | 0.00 | 25 | 960.0 |
| 20260505213031 | 81 | 188 | 0.0 | 0.0 | 0.00 | 0.00 | 0.00 | 26 | 960.1 |
| 20260505211528 | 80 | 188 | 0.0 | 0.0 | 0.00 | 0.00 | 0.00 | 28 | 960.3 |
| 20260505210026 | 80 | 171 | 0.0 | 0.0 | 0.00 | 0.00 | 0.00 | 30 | 960.4 |
| 20260505204524 | 78 | 172 | 0.0 | 0.0 | 0.00 | 0.00 | 0.00 | 28 | 960.6 |
| 20260505203021 | 78 | 172 | 0.0 | 0.9 | 0.00 | 0.00 | 0.00 | 30 | 960.8 |
| 20260505201519 | 77 | 171 | 0.0 | 1.7 | 0.00 | 0.00 | 0.00 | 30 | 961.0 |
| 20260505200019 | 77 | 191 | 0.0 | 5.2 | 0.00 | 0.00 | 0.00 | 31 | 961.1 |
| 20260505194515 | 76 | 243 | 0.0 | 2.6 | 0.00 | 0.00 | 0.00 | 33 | 961.3 |
| 20260505193010 | 75 | 224 | 0.9 | 4.3 | 0.00 | 0.00 | 0.00 | 35 | 961.5 |
| 20260505191508 | 74 | 222 | 0.0 | 3.5 | 0.00 | 0.00 | 0.00 | 35 | 961.7 |
| 20260505190007 | 72 | 185 | 0.0 | 0.9 | 0.00 | 0.00 | 0.00 | 36 | 961.9 |
| 20260505184600 | 71 | 193 | 0.0 | 1.7 | 0.00 | 0.00 | 0.00 | 37 | 962.1 |
| 20260505183057 | 70 | 194 | 0.0 | 2.6 | 0.00 | 0.00 | 0.00 | 41 | 962.3 |
| 20260505181552 | 69 | 156 | 0.0 | 0.0 | 0.00 | 0.00 | 0.00 | 42 | 962.4 |
| 20260505180100 | 68 | 156 | 0.0 | 0.0 | 0.00 | 0.00 | 0.00 | 41 | 962.6 |
| 20260505174553 | 66 | 156 | 0.0 | 2.6 | 0.00 | 0.00 | 0.00 | 41 | 962.7 |
| 20260505173045 | 65 | 347 | 0.0 | 1.7 | 0.00 | 0.00 | 0.00 | 46 | 962.8 |
| 20260505171537 | 64 | 348 | 0.0 | 0.0 | 0.00 | 0.00 | 0.00 | 48 | 962.9 |
| 20260505170033 | 63 | 348 | 0.0 | 0.0 | 0.00 | 0.00 | 0.00 | 52 | 963.0 |
| 20260505164529 | 61 | 348 | 0.0 | 1.7 | 0.00 | 0.00 | 0.00 | 56 | 963.0 |
| 20260505163028 | 59 | 348 | 0.0 | 0.9 | 0.00 | 0.00 | 0.00 | 55 | 963.0 |
| 20260505161520 | 58 | 348 | 0.0 | 0.0 | 0.00 | 0.00 | 0.00 | 63 | 963.1 |
| 20260505153015 | 51 | 348 | 0.0 | 0.0 | 0.00 | 0.00 | 0.00 | 74 | 963.4 |
| 20260505151514 | 49 | 348 | 0.0 | 0.0 | 0.00 | 0.00 | 0.00 | 76 | 963.5 |